Terminal Aerodrome Forecast
Issued by NWS

Home | Current Version | Previous Version | Text Only | Print | Product List | Glossary On
Versions: 1 2 3 4 5 6 7 8 9 10 11 12 13 14 15 16 17 18 19 20 21 22 23 24 25
000
FTUS41 KOKX 231720
TAFSWF
TAF
KSWF 231720Z 2318/2424 24005KT P6SM SCT035
     FM240000 VRB03KT 5SM BR SCT010 BKN035
     FM240300 VRB03KT 3SM BR BKN010
     FM240900 VRB03KT 1/2SM FG OVC008
     FM241500 24006KT 2SM BR BKN008
     FM241800 23008KT 4SM BR BKN010
      AMD NOT SKED=

USA.gov is the U.S. government's official web portal to all federal, state and local government web resources and services.